sensor_id;sensor_type;location;lat;lon;timestamp;pressure;altitude;pressure_sealevel;temperature;humidity
7333;BME280;3707;43.618;25.342;2023-06-10T00:00:12;99615.53;;;22.52;65.49
7333;BME280;3707;43.618;25.342;2023-06-10T00:02:40;99595.13;;;22.34;66.08
7333;BME280;3707;43.618;25.342;2023-06-10T00:05:09;99618.97;;;22.54;66.52
7333;BME280;3707;43.618;25.342;2023-06-10T00:07:36;99622.91;;;22.44;65.00
7333;BME280;3707;43.618;25.342;2023-06-10T00:10:04;99629.78;;;22.48;61.41
7333;BME280;3707;43.618;25.342;2023-06-10T00:12:31;99630.91;;;22.42;60.67
7333;BME280;3707;43.618;25.342;2023-06-10T00:15:02;99622.72;;;22.48;59.77
7333;BME280;3707;43.618;25.342;2023-06-10T00:17:29;99621.66;;;22.52;60.24
7333;BME280;3707;43.618;25.342;2023-06-10T00:19:56;99619.09;;;22.51;60.17
7333;BME280;3707;43.618;25.342;2023-06-10T00:22:24;99627.44;;;22.62;60.75
7333;BME280;3707;43.618;25.342;2023-06-10T00:24:54;99627.94;;;22.50;60.65
7333;BME280;3707;43.618;25.342;2023-06-10T00:27:22;99630.47;;;22.53;60.97
7333;BME280;3707;43.618;25.342;2023-06-10T00:29:48;99628.22;;;22.44;61.58
7333;BME280;3707;43.618;25.342;2023-06-10T00:32:15;99627.34;;;22.43;61.58
7333;BME280;3707;43.618;25.342;2023-06-10T00:34:42;99623.97;;;22.40;61.26
7333;BME280;3707;43.618;25.342;2023-06-10T00:37:09;99626.53;;;22.41;61.88
7333;BME280;3707;43.618;25.342;2023-06-10T00:39:37;99622.66;;;22.50;61.33
7333;BME280;3707;43.618;25.342;2023-06-10T00:42:04;99626.41;;;22.44;60.55
7333;BME280;3707;43.618;25.342;2023-06-10T00:44:32;99621.41;;;22.37;60.59
7333;BME280;3707;43.618;25.342;2023-06-10T00:46:59;99621.69;;;22.31;62.01
7333;BME280;3707;43.618;25.342;2023-06-10T00:49:26;99609.75;;;22.20;63.58
7333;BME280;3707;43.618;25.342;2023-06-10T00:51:53;99622.78;;;22.25;64.70
7333;BME280;3707;43.618;25.342;2023-06-10T00:54:20;99631.63;;;22.24;64.22
7333;BME280;3707;43.618;25.342;2023-06-10T00:56:49;99634.75;;;22.34;64.32
7333;BME280;3707;43.618;25.342;2023-06-10T00:59:16;99507.25;;;21.42;65.16
7333;BME280;3707;43.618;25.342;2023-06-10T01:01:45;99628.50;;;22.14;67.21
7333;BME280;3707;43.618;25.342;2023-06-10T01:04:12;99632.22;;;22.09;70.80
7333;BME280;3707;43.618;25.342;2023-06-10T01:06:45;99585.34;;;21.69;81.51
7333;BME280;3707;43.618;25.342;2023-06-10T01:09:24;99651.50;;;21.88;83.91
7333;BME280;3707;43.618;25.342;2023-06-10T01:12:02;99643.75;;;21.60;87.81
7333;BME280;3707;43.618;25.342;2023-06-10T01:14:35;99611.41;;;21.05;92.83
7333;BME280;3707;43.618;25.342;2023-06-10T01:17:04;99637.97;;;21.01;95.15
7333;BME280;3707;43.618;25.342;2023-06-10T01:19:32;99643.19;;;20.76;96.81
7333;BME280;3707;43.618;25.342;2023-06-10T01:22:00;99621.44;;;20.69;96.89
7333;BME280;3707;43.618;25.342;2023-06-10T01:24:27;99633.56;;;20.75;98.50
7333;BME280;3707;43.618;25.342;2023-06-10T01:27:00;99631.44;;;20.86;100.00
7333;BME280;3707;43.618;25.342;2023-06-10T01:29:31;99631.06;;;20.97;95.79
7333;BME280;3707;43.618;25.342;2023-06-10T01:32:03;99633.31;;;20.83;91.86
7333;BME280;3707;43.618;25.342;2023-06-10T01:34:32;99617.38;;;20.86;91.33
7333;BME280;3707;43.618;25.342;2023-06-10T01:37:03;99626.31;;;21.06;88.65
7333;BME280;3707;43.618;25.342;2023-06-10T01:39:31;99625.41;;;21.07;88.31
7333;BME280;3707;43.618;25.342;2023-06-10T01:41:59;99614.97;;;21.04;86.97
7333;BME280;3707;43.618;25.342;2023-06-10T01:44:27;99625.19;;;21.15;86.99
7333;BME280;3707;43.618;25.342;2023-06-10T01:46:54;99615.47;;;21.15;85.49
7333;BME280;3707;43.618;25.342;2023-06-10T01:49:21;99598.97;;;21.10;85.94
7333;BME280;3707;43.618;25.342;2023-06-10T01:51:49;99604.03;;;21.16;85.44
7333;BME280;3707;43.618;25.342;2023-06-10T01:54:17;99631.06;;;21.46;85.94
7333;BME280;3707;43.618;25.342;2023-06-10T01:56:44;99631.31;;;21.40;86.02
7333;BME280;3707;43.618;25.342;2023-06-10T01:59:11;99626.88;;;21.41;85.89
7333;BME280;3707;43.618;25.342;2023-06-10T02:01:37;99634.69;;;21.44;86.52
7333;BME280;3707;43.618;25.342;2023-06-10T02:04:04;99626.78;;;21.44;83.74
7333;BME280;3707;43.618;25.342;2023-06-10T02:06:31;99629.22;;;21.48;80.92
7333;BME280;3707;43.618;25.342;2023-06-10T02:08:58;99630.84;;;21.52;79.86
7333;BME280;3707;43.618;25.342;2023-06-10T02:11:26;99622.66;;;21.60;78.68
7333;BME280;3707;43.618;25.342;2023-06-10T02:13:53;99621.28;;;21.50;78.42
7333;BME280;3707;43.618;25.342;2023-06-10T02:16:20;99628.94;;;21.56;74.63
7333;BME280;3707;43.618;25.342;2023-06-10T02:18:47;99627.03;;;21.61;74.41
7333;BME280;3707;43.618;25.342;2023-06-10T02:21:14;99623.78;;;21.53;71.56
7333;BME280;3707;43.618;25.342;2023-06-10T02:23:40;99619.31;;;21.55;70.80
7333;BME280;3707;43.618;25.342;2023-06-10T02:26:07;99600.84;;;21.55;70.93
7333;BME280;3707;43.618;25.342;2023-06-10T02:28:35;99621.13;;;21.76;70.67
7333;BME280;3707;43.618;25.342;2023-06-10T02:31:02;99589.50;;;21.53;71.28
7333;BME280;3707;43.618;25.342;2023-06-10T02:33:29;99618.06;;;21.65;70.83
7333;BME280;3707;43.618;25.342;2023-06-10T02:35:56;99616.25;;;21.65;71.47
7333;BME280;3707;43.618;25.342;2023-06-10T02:38:23;99606.69;;;21.63;71.43
7333;BME280;3707;43.618;25.342;2023-06-10T02:40:50;99539.41;;;21.30;72.80
7333;BME280;3707;43.618;25.342;2023-06-10T02:43:18;99622.00;;;21.76;75.25
7333;BME280;3707;43.618;25.342;2023-06-10T02:45:46;99624.84;;;21.95;77.08
7333;BME280;3707;43.618;25.342;2023-06-10T02:48:13;99623.75;;;21.77;77.59
7333;BME280;3707;43.618;25.342;2023-06-10T02:50:39;99613.19;;;21.54;77.17
7333;BME280;3707;43.618;25.342;2023-06-10T02:53:06;99633.84;;;21.66;80.47
7333;BME280;3707;43.618;25.342;2023-06-10T02:55:33;99631.28;;;21.65;83.21
7333;BME280;3707;43.618;25.342;2023-06-10T02:58:00;99629.88;;;21.55;87.15
7333;BME280;3707;43.618;25.342;2023-06-10T03:00:28;99607.88;;;21.31;89.25
7333;BME280;3707;43.618;25.342;2023-06-10T03:02:56;99629.19;;;21.50;91.71
7333;BME280;3707;43.618;25.342;2023-06-10T03:05:23;99604.50;;;21.27;93.08
7333;BME280;3707;43.618;25.342;2023-06-10T03:07:50;99600.22;;;21.25;93.43
7333;BME280;3707;43.618;25.342;2023-06-10T03:10:17;99623.31;;;21.42;93.65
7333;BME280;3707;43.618;25.342;2023-06-10T03:12:43;99634.59;;;21.47;93.74
7333;BME280;3707;43.618;25.342;2023-06-10T03:15:10;99636.88;;;21.56;94.66
7333;BME280;3707;43.618;25.342;2023-06-10T03:17:37;99623.13;;;21.23;95.16
7333;BME280;3707;43.618;25.342;2023-06-10T03:20:07;99646.78;;;21.49;94.47
7333;BME280;3707;43.618;25.342;2023-06-10T03:22:35;99636.50;;;21.42;95.29
7333;BME280;3707;43.618;25.342;2023-06-10T03:25:04;99643.31;;;21.72;92.08
7333;BME280;3707;43.618;25.342;2023-06-10T03:27:31;99642.53;;;21.93;86.96
7333;BME280;3707;43.618;25.342;2023-06-10T03:29:58;99641.00;;;22.09;84.52
7333;BME280;3707;43.618;25.342;2023-06-10T03:32:25;99639.84;;;22.16;81.86
7333;BME280;3707;43.618;25.342;2023-06-10T03:34:52;99610.22;;;22.08;80.85
7333;BME280;3707;43.618;25.342;2023-06-10T03:37:23;99647.22;;;22.52;77.30
7333;BME280;3707;43.618;25.342;2023-06-10T03:39:50;99636.75;;;22.50;76.42
7333;BME280;3707;43.618;25.342;2023-06-10T03:42:17;99640.25;;;22.51;75.94
7333;BME280;3707;43.618;25.342;2023-06-10T03:44:43;99633.50;;;22.44;72.22
7333;BME280;3707;43.618;25.342;2023-06-10T03:47:10;99641.59;;;22.39;71.82
7333;BME280;3707;43.618;25.342;2023-06-10T03:49:38;99607.59;;;22.08;68.82
7333;BME280;3707;43.618;25.342;2023-06-10T03:52:06;99636.13;;;22.44;69.89
7333;BME280;3707;43.618;25.342;2023-06-10T03:54:35;99621.19;;;22.64;67.54
7333;BME280;3707;43.618;25.342;2023-06-10T03:57:01;99633.03;;;22.76;66.67
7333;BME280;3707;43.618;25.342;2023-06-10T03:59:29;99635.03;;;22.91;64.86
7333;BME280;3707;43.618;25.342;2023-06-10T04:01:55;99639.16;;;23.18;64.61
7333;BME280;3707;43.618;25.342;2023-06-10T04:04:23;99639.13;;;22.98;79.33
7333;BME280;3707;43.618;25.342;2023-06-10T04:06:49;99623.22;;;22.58;82.71
7333;BME280;3707;43.618;25.342;2023-06-10T04:09:16;99653.13;;;22.58;84.41
7333;BME280;3707;43.618;25.342;2023-06-10T04:11:44;99659.09;;;22.42;84.87
7333;BME280;3707;43.618;25.342;2023-06-10T04:14:11;99659.25;;;21.69;89.79
7333;BME280;3707;43.618;25.342;2023-06-10T04:16:39;99647.69;;;21.96;90.39
7333;BME280;3707;43.618;25.342;2023-06-10T04:19:06;99655.94;;;22.10;88.68
7333;BME280;3707;43.618;25.342;2023-06-10T04:21:32;99655.44;;;22.22;88.80
7333;BME280;3707;43.618;25.342;2023-06-10T04:23:59;99664.88;;;22.51;89.85
7333;BME280;3707;43.618;25.342;2023-06-10T04:26:27;99666.44;;;22.79;84.88
7333;BME280;3707;43.618;25.342;2023-06-10T04:28:55;99663.34;;;22.89;85.26
7333;BME280;3707;43.618;25.342;2023-06-10T04:31:22;99650.25;;;22.86;82.73
7333;BME280;3707;43.618;25.342;2023-06-10T04:33:48;99663.44;;;23.08;83.01
7333;BME280;3707;43.618;25.342;2023-06-10T04:36:15;99663.47;;;23.27;83.12
7333;BME280;3707;43.618;25.342;2023-06-10T04:38:42;99664.56;;;23.43;81.87
7333;BME280;3707;43.618;25.342;2023-06-10T04:41:09;99665.53;;;23.60;78.48
7333;BME280;3707;43.618;25.342;2023-06-10T04:43:35;99668.44;;;23.54;78.19
7333;BME280;3707;43.618;25.342;2023-06-10T04:46:04;99672.03;;;23.53;81.05
7333;BME280;3707;43.618;25.342;2023-06-10T04:48:30;99676.50;;;23.31;86.40
7333;BME280;3707;43.618;25.342;2023-06-10T04:51:00;99669.94;;;23.80;92.11
7333;BME280;3707;43.618;25.342;2023-06-10T04:53:27;99671.94;;;23.75;85.01
7333;BME280;3707;43.618;25.342;2023-06-10T04:55:54;99674.75;;;23.52;83.20
7333;BME280;3707;43.618;25.342;2023-06-10T04:58:20;99674.97;;;23.66;88.50
7333;BME280;3707;43.618;25.342;2023-06-10T05:00:47;99668.47;;;23.93;84.69
7333;BME280;3707;43.618;25.342;2023-06-10T05:03:15;99609.44;;;23.52;80.87
7333;BME280;3707;43.618;25.342;2023-06-10T05:05:42;99660.31;;;23.59;83.23
7333;BME280;3707;43.618;25.342;2023-06-10T05:08:09;99675.31;;;23.97;82.82
7333;BME280;3707;43.618;25.342;2023-06-10T05:10:36;99657.63;;;23.98;77.92
7333;BME280;3707;43.618;25.342;2023-06-10T05:13:02;99671.19;;;23.53;79.47
7333;BME280;3707;43.618;25.342;2023-06-10T05:15:29;99684.31;;;23.75;77.87
7333;BME280;3707;43.618;25.342;2023-06-10T05:17:57;99678.97;;;23.56;77.02
7333;BME280;3707;43.618;25.342;2023-06-10T05:20:25;99682.34;;;23.59;78.12
7333;BME280;3707;43.618;25.342;2023-06-10T05:22:54;99690.53;;;23.33;75.13
7333;BME280;3707;43.618;25.342;2023-06-10T05:25:21;99613.94;;;22.69;78.38
7333;BME280;3707;43.618;25.342;2023-06-10T05:27:48;99690.22;;;23.20;81.11
7333;BME280;3707;43.618;25.342;2023-06-10T05:30:14;99681.81;;;23.31;81.60
7333;BME280;3707;43.618;25.342;2023-06-10T05:32:44;99692.84;;;23.41;80.57
7333;BME280;3707;43.618;25.342;2023-06-10T05:35:10;99690.16;;;23.62;80.69
7333;BME280;3707;43.618;25.342;2023-06-10T05:37:38;99690.38;;;23.77;79.70
7333;BME280;3707;43.618;25.342;2023-06-10T05:40:06;99698.94;;;23.63;78.86
7333;BME280;3707;43.618;25.342;2023-06-10T05:42:33;99689.25;;;23.43;78.43
7333;BME280;3707;43.618;25.342;2023-06-10T05:45:00;99699.44;;;23.91;78.00
7333;BME280;3707;43.618;25.342;2023-06-10T05:47:27;99703.63;;;24.15;75.62
7333;BME280;3707;43.618;25.342;2023-06-10T05:49:54;99679.06;;;23.93;77.60
7333;BME280;3707;43.618;25.342;2023-06-10T05:52:21;99703.88;;;23.91;78.41
7333;BME280;3707;43.618;25.342;2023-06-10T05:54:50;99705.03;;;24.04;76.75
7333;BME280;3707;43.618;25.342;2023-06-10T05:57:16;99701.78;;;23.97;74.23
7333;BME280;3707;43.618;25.342;2023-06-10T05:59:43;99704.91;;;24.07;75.14
7333;BME280;3707;43.618;25.342;2023-06-10T06:02:10;99696.72;;;24.11;75.84
7333;BME280;3707;43.618;25.342;2023-06-10T06:04:37;99703.63;;;24.34;73.68
7333;BME280;3707;43.618;25.342;2023-06-10T06:07:04;99693.09;;;24.51;74.49
7333;BME280;3707;43.618;25.342;2023-06-10T06:09:31;99691.91;;;24.40;72.01
7333;BME280;3707;43.618;25.342;2023-06-10T06:11:59;99679.94;;;24.31;71.98
7333;BME280;3707;43.618;25.342;2023-06-10T06:14:26;99693.38;;;24.45;70.63
7333;BME280;3707;43.618;25.342;2023-06-10T06:16:53;99695.50;;;24.75;69.36
7333;BME280;3707;43.618;25.342;2023-06-10T06:19:19;99683.59;;;24.83;70.36
7333;BME280;3707;43.618;25.342;2023-06-10T06:21:46;99699.22;;;25.24;67.74
7333;BME280;3707;43.618;25.342;2023-06-10T06:24:14;99672.00;;;25.03;69.31
7333;BME280;3707;43.618;25.342;2023-06-10T06:26:41;99674.03;;;25.32;68.53
7333;BME280;3707;43.618;25.342;2023-06-10T06:29:10;99694.13;;;25.71;66.95
7333;BME280;3707;43.618;25.342;2023-06-10T06:31:36;99683.34;;;25.74;67.05
7333;BME280;3707;43.618;25.342;2023-06-10T06:34:03;99676.41;;;25.71;68.11
7333;BME280;3707;43.618;25.342;2023-06-10T06:36:30;99678.84;;;25.58;69.62
7333;BME280;3707;43.618;25.342;2023-06-10T06:38:57;99691.47;;;25.71;68.16
7333;BME280;3707;43.618;25.342;2023-06-10T06:41:24;99624.97;;;25.22;70.23
7333;BME280;3707;43.618;25.342;2023-06-10T06:43:51;99655.03;;;25.23;72.13
7333;BME280;3707;43.618;25.342;2023-06-10T06:46:19;99682.34;;;25.42;71.35
7333;BME280;3707;43.618;25.342;2023-06-10T06:48:46;99686.00;;;25.74;69.26
7333;BME280;3707;43.618;25.342;2023-06-10T06:51:13;99686.06;;;25.89;69.85
7333;BME280;3707;43.618;25.342;2023-06-10T06:53:40;99686.06;;;25.89;70.55
7333;BME280;3707;43.618;25.342;2023-06-10T06:56:10;99641.78;;;25.73;71.53
7333;BME280;3707;43.618;25.342;2023-06-10T06:58:36;99681.94;;;26.32;68.98
7333;BME280;3707;43.618;25.342;2023-06-10T07:01:03;99678.56;;;26.44;67.30
7333;BME280;3707;43.618;25.342;2023-06-10T07:03:31;99679.75;;;26.70;65.93
7333;BME280;3707;43.618;25.342;2023-06-10T07:05:58;99676.91;;;26.73;64.61
7333;BME280;3707;43.618;25.342;2023-06-10T07:08:25;99665.50;;;26.71;63.67
7333;BME280;3707;43.618;25.342;2023-06-10T07:10:52;99670.97;;;26.99;62.39
7333;BME280;3707;43.618;25.342;2023-06-10T07:13:18;99668.63;;;27.09;60.83
7333;BME280;3707;43.618;25.342;2023-06-10T07:15:46;99668.63;;;27.09;61.81
7333;BME280;3707;43.618;25.342;2023-06-10T07:18:12;99662.13;;;27.29;60.36
7333;BME280;3707;43.618;25.342;2023-06-10T07:20:40;99672.34;;;27.21;59.07
7333;BME280;3707;43.618;25.342;2023-06-10T07:23:07;99664.78;;;26.99;57.93
7333;BME280;3707;43.618;25.342;2023-06-10T07:25:34;99652.00;;;27.20;56.29
7333;BME280;3707;43.618;25.342;2023-06-10T07:28:01;99651.06;;;27.21;55.46
7333;BME280;3707;43.618;25.342;2023-06-10T07:30:28;99657.88;;;27.10;55.09
7333;BME280;3707;43.618;25.342;2023-06-10T07:32:55;99669.91;;;27.32;56.01
7333;BME280;3707;43.618;25.342;2023-06-10T07:35:22;99666.69;;;27.41;58.24
7333;BME280;3707;43.618;25.342;2023-06-10T07:37:50;99654.00;;;27.88;55.29
7333;BME280;3707;43.618;25.342;2023-06-10T07:40:17;99660.69;;;27.37;56.96
7333;BME280;3707;43.618;25.342;2023-06-10T07:42:44;99661.59;;;27.66;56.93
7333;BME280;3707;43.618;25.342;2023-06-10T07:45:10;99665.00;;;27.54;55.09
7333;BME280;3707;43.618;25.342;2023-06-10T07:47:37;99670.06;;;28.01;54.16
7333;BME280;3707;43.618;25.342;2023-06-10T07:50:04;99675.09;;;28.05;54.61
7333;BME280;3707;43.618;25.342;2023-06-10T07:52:31;99672.06;;;27.97;55.94
7333;BME280;3707;43.618;25.342;2023-06-10T07:54:59;99657.56;;;28.30;52.34
7333;BME280;3707;43.618;25.342;2023-06-10T07:57:26;99679.13;;;27.84;54.19
7333;BME280;3707;43.618;25.342;2023-06-10T07:59:53;99671.13;;;28.13;54.75
7333;BME280;3707;43.618;25.342;2023-06-10T08:02:23;99675.91;;;28.22;54.44
7333;BME280;3707;43.618;25.342;2023-06-10T08:04:49;99677.19;;;27.72;56.22
7333;BME280;3707;43.618;25.342;2023-06-10T08:07:16;99672.25;;;27.80;57.39
7333;BME280;3707;43.618;25.342;2023-06-10T08:09:43;99681.50;;;28.03;57.29
7333;BME280;3707;43.618;25.342;2023-06-10T08:12:11;99685.97;;;28.31;59.14
7333;BME280;3707;43.618;25.342;2023-06-10T08:14:38;99674.31;;;28.46;59.18
7333;BME280;3707;43.618;25.342;2023-06-10T08:17:05;99689.72;;;29.09;58.57
7333;BME280;3707;43.618;25.342;2023-06-10T08:19:32;99693.34;;;29.08;56.92
7333;BME280;3707;43.618;25.342;2023-06-10T08:21:59;99692.50;;;29.07;57.18
7333;BME280;3707;43.618;25.342;2023-06-10T08:24:25;99696.25;;;29.17;56.50
7333;BME280;3707;43.618;25.342;2023-06-10T08:26:52;99688.31;;;29.03;56.87
7333;BME280;3707;43.618;25.342;2023-06-10T08:29:21;99678.44;;;29.18;57.81
7333;BME280;3707;43.618;25.342;2023-06-10T08:31:48;99692.81;;;29.42;57.32
7333;BME280;3707;43.618;25.342;2023-06-10T08:34:15;99688.28;;;28.90;58.00
7333;BME280;3707;43.618;25.342;2023-06-10T08:36:43;99687.31;;;28.91;57.39
7333;BME280;3707;43.618;25.342;2023-06-10T08:39:10;99692.50;;;29.07;58.67
7333;BME280;3707;43.618;25.342;2023-06-10T08:41:42;99690.22;;;29.28;59.56
7333;BME280;3707;43.618;25.342;2023-06-10T08:44:12;99684.75;;;28.90;59.27
7333;BME280;3707;43.618;25.342;2023-06-10T08:46:42;99682.47;;;29.11;60.43
7333;BME280;3707;43.618;25.342;2023-06-10T08:49:15;99685.50;;;28.92;59.37
7333;BME280;3707;43.618;25.342;2023-06-10T08:51:45;99690.41;;;29.25;60.09
7333;BME280;3707;43.618;25.342;2023-06-10T08:54:17;99684.91;;;29.66;58.15
7333;BME280;3707;43.618;25.342;2023-06-10T08:56:49;99684.16;;;29.76;57.33
7333;BME280;3707;43.618;25.342;2023-06-10T08:59:18;99683.78;;;30.19;56.32
7333;BME280;3707;43.618;25.342;2023-06-10T09:01:47;99684.63;;;30.44;54.14
7333;BME280;3707;43.618;25.342;2023-06-10T09:04:14;99685.25;;;29.99;54.21
7333;BME280;3707;43.618;25.342;2023-06-10T09:06:42;99682.88;;;29.69;55.97
7333;BME280;3707;43.618;25.342;2023-06-10T09:09:09;99658.50;;;29.36;55.89
7333;BME280;3707;43.618;25.342;2023-06-10T09:11:37;99687.06;;;29.98;54.80
7333;BME280;3707;43.618;25.342;2023-06-10T09:14:04;99675.78;;;30.19;53.96
7333;BME280;3707;43.618;25.342;2023-06-10T09:16:31;99683.66;;;30.93;53.06
7333;BME280;3707;43.618;25.342;2023-06-10T09:18:59;99675.81;;;30.55;53.47
7333;BME280;3707;43.618;25.342;2023-06-10T09:21:26;99682.91;;;30.91;51.95
7333;BME280;3707;43.618;25.342;2023-06-10T09:23:53;99654.91;;;30.24;51.70
7333;BME280;3707;43.618;25.342;2023-06-10T09:26:20;99673.34;;;29.65;53.79
7333;BME280;3707;43.618;25.342;2023-06-10T09:28:48;99662.94;;;30.11;54.36
7333;BME280;3707;43.618;25.342;2023-06-10T09:31:16;99668.44;;;30.93;54.53
7333;BME280;3707;43.618;25.342;2023-06-10T09:33:45;99675.44;;;31.31;51.39
7333;BME280;3707;43.618;25.342;2023-06-10T09:36:21;99669.53;;;31.15;51.36
7333;BME280;3707;43.618;25.342;2023-06-10T09:38:49;99667.66;;;31.39;51.70
7333;BME280;3707;43.618;25.342;2023-06-10T09:41:16;99663.03;;;30.82;52.40
7333;BME280;3707;43.618;25.342;2023-06-10T09:43:44;99654.97;;;30.71;52.30
7333;BME280;3707;43.618;25.342;2023-06-10T09:46:15;99653.56;;;30.78;52.51
7333;BME280;3707;43.618;25.342;2023-06-10T09:48:44;99659.09;;;30.64;52.58
7333;BME280;3707;43.618;25.342;2023-06-10T09:51:13;99658.72;;;30.45;53.81
7333;BME280;3707;43.618;25.342;2023-06-10T09:53:42;99663.00;;;30.35;53.01
7333;BME280;3707;43.618;25.342;2023-06-10T09:56:09;99662.38;;;30.31;51.60
7333;BME280;3707;43.618;25.342;2023-06-10T09:58:37;99653.72;;;30.64;51.80
7333;BME280;3707;43.618;25.342;2023-06-10T10:01:08;99653.03;;;30.97;50.70
7333;BME280;3707;43.618;25.342;2023-06-10T10:03:43;99644.09;;;30.96;49.06
7333;BME280;3707;43.618;25.342;2023-06-10T10:06:12;99650.81;;;31.37;49.26
7333;BME280;3707;43.618;25.342;2023-06-10T10:08:39;99653.81;;;31.56;48.88
7333;BME280;3707;43.618;25.342;2023-06-10T10:11:06;99640.84;;;31.39;48.12
7333;BME280;3707;43.618;25.342;2023-06-10T10:13:34;99633.00;;;31.71;48.05
7333;BME280;3707;43.618;25.342;2023-06-10T10:16:04;99605.69;;;31.66;47.62
7333;BME280;3707;43.618;25.342;2023-06-10T10:18:33;99645.03;;;31.08;49.22
7333;BME280;3707;43.618;25.342;2023-06-10T10:21:07;99636.16;;;30.84;48.61
7333;BME280;3707;43.618;25.342;2023-06-10T10:23:50;99634.31;;;30.49;48.97
7333;BME280;3707;43.618;25.342;2023-06-10T10:26:21;99627.38;;;29.98;50.08
7333;BME280;3707;43.618;25.342;2023-06-10T10:28:53;99622.56;;;30.27;50.02
7333;BME280;3707;43.618;25.342;2023-06-10T10:31:26;99622.50;;;30.16;50.40
7333;BME280;3707;43.618;25.342;2023-06-10T10:33:57;99623.03;;;29.46;50.09
7333;BME280;3707;43.618;25.342;2023-06-10T10:36:25;99626.38;;;30.48;50.32
7333;BME280;3707;43.618;25.342;2023-06-10T10:38:56;99624.16;;;30.66;47.91
7333;BME280;3707;43.618;25.342;2023-06-10T10:41:24;99615.88;;;30.92;48.46
7333;BME280;3707;43.618;25.342;2023-06-10T10:43:53;99606.59;;;31.20;48.02
7333;BME280;3707;43.618;25.342;2023-06-10T10:46:21;99612.16;;;30.71;48.13
7333;BME280;3707;43.618;25.342;2023-06-10T10:48:52;99586.31;;;29.99;49.49
7333;BME280;3707;43.618;25.342;2023-06-10T10:51:19;99599.47;;;30.26;49.07
7333;BME280;3707;43.618;25.342;2023-06-10T10:54:12;99608.13;;;31.01;48.89
7333;BME280;3707;43.618;25.342;2023-06-10T10:56:39;99605.69;;;30.97;48.88
7333;BME280;3707;43.618;25.342;2023-06-10T10:59:06;99602.81;;;31.23;47.90
7333;BME280;3707;43.618;25.342;2023-06-10T11:01:41;99602.91;;;31.78;46.56
7333;BME280;3707;43.618;25.342;2023-06-10T11:04:11;99598.75;;;31.52;45.72
7333;BME280;3707;43.618;25.342;2023-06-10T11:06:38;99598.50;;;31.88;45.31
7333;BME280;3707;43.618;25.342;2023-06-10T11:09:27;99594.53;;;32.26;43.01
7333;BME280;3707;43.618;25.342;2023-06-10T11:11:56;99594.09;;;31.65;42.72
7333;BME280;3707;43.618;25.342;2023-06-10T11:14:27;99596.03;;;31.41;43.98
7333;BME280;3707;43.618;25.342;2023-06-10T11:16:56;99586.38;;;31.27;43.58
7333;BME280;3707;43.618;25.342;2023-06-10T11:19:33;99567.03;;;30.54;45.43
7333;BME280;3707;43.618;25.342;2023-06-10T11:22:02;99587.38;;;30.91;46.31
7333;BME280;3707;43.618;25.342;2023-06-10T11:24:30;99566.03;;;30.79;47.47
7333;BME280;3707;43.618;25.342;2023-06-10T11:27:17;99575.34;;;30.97;46.51
7333;BME280;3707;43.618;25.342;2023-06-10T11:29:58;99562.66;;;31.45;46.57
7333;BME280;3707;43.618;25.342;2023-06-10T11:32:29;99562.94;;;31.53;47.10
7333;BME280;3707;43.618;25.342;2023-06-10T11:34:57;99549.66;;;30.94;45.46
7333;BME280;3707;43.618;25.342;2023-06-10T11:37:24;99540.22;;;30.43;46.81
7333;BME280;3707;43.618;25.342;2023-06-10T11:39:55;99555.41;;;31.01;46.38
7333;BME280;3707;43.618;25.342;2023-06-10T11:42:23;99556.50;;;30.98;45.53
7333;BME280;3707;43.618;25.342;2023-06-10T11:44:50;99532.38;;;30.53;43.66
7333;BME280;3707;43.618;25.342;2023-06-10T11:47:17;99483.66;;;30.71;44.60
7333;BME280;3707;43.618;25.342;2023-06-10T11:49:44;99534.13;;;31.11;44.54
7333;BME280;3707;43.618;25.342;2023-06-10T11:52:11;99522.31;;;31.02;43.56
7333;BME280;3707;43.618;25.342;2023-06-10T11:54:38;99526.81;;;31.02;42.59
7333;BME280;3707;43.618;25.342;2023-06-10T11:57:06;99540.72;;;31.51;43.45
7333;BME280;3707;43.618;25.342;2023-06-10T11:59:34;99507.81;;;31.05;43.45
7333;BME280;3707;43.618;25.342;2023-06-10T12:02:00;99521.09;;;31.06;42.24
7333;BME280;3707;43.618;25.342;2023-06-10T12:04:27;99539.47;;;31.00;40.44
7333;BME280;3707;43.618;25.342;2023-06-10T12:06:54;99530.59;;;30.99;40.37
7333;BME280;3707;43.618;25.342;2023-06-10T12:09:22;99542.41;;;31.19;40.50
7333;BME280;3707;43.618;25.342;2023-06-10T12:11:51;99530.38;;;30.89;40.36
7333;BME280;3707;43.618;25.342;2023-06-10T12:14:52;99532.78;;;30.70;38.95
7333;BME280;3707;43.618;25.342;2023-06-10T12:17:23;99522.13;;;30.81;39.58
7333;BME280;3707;43.618;25.342;2023-06-10T12:19:50;99532.47;;;30.51;39.56
7333;BME280;3707;43.618;25.342;2023-06-10T12:22:17;99532.75;;;30.12;39.48
7333;BME280;3707;43.618;25.342;2023-06-10T12:24:45;99519.34;;;30.24;41.67
7333;BME280;3707;43.618;25.342;2023-06-10T12:27:12;99509.75;;;30.33;41.54
7333;BME280;3707;43.618;25.342;2023-06-10T12:29:39;99517.91;;;31.01;40.65
7333;BME280;3707;43.618;25.342;2023-06-10T12:32:08;99513.69;;;31.65;40.63
7333;BME280;3707;43.618;25.342;2023-06-10T12:34:37;99521.19;;;31.82;40.23
7333;BME280;3707;43.618;25.342;2023-06-10T12:37:05;99505.38;;;31.79;40.03
7333;BME280;3707;43.618;25.342;2023-06-10T12:39:33;99499.88;;;31.81;39.95
7333;BME280;3707;43.618;25.342;2023-06-10T12:42:00;99512.44;;;31.80;40.50
7333;BME280;3707;43.618;25.342;2023-06-10T12:44:39;99510.00;;;31.88;40.40
7333;BME280;3707;43.618;25.342;2023-06-10T12:47:11;99487.72;;;31.66;39.93
7333;BME280;3707;43.618;25.342;2023-06-10T12:49:39;99501.19;;;31.86;39.65
7333;BME280;3707;43.618;25.342;2023-06-10T12:52:06;99499.31;;;31.66;39.41
7333;BME280;3707;43.618;25.342;2023-06-10T12:54:34;99511.22;;;31.73;39.44
7333;BME280;3707;43.618;25.342;2023-06-10T12:57:01;99507.41;;;31.98;39.36
7333;BME280;3707;43.618;25.342;2023-06-10T12:59:28;99502.88;;;31.99;38.04
7333;BME280;3707;43.618;25.342;2023-06-10T13:01:55;99500.25;;;32.30;38.76
7333;BME280;3707;43.618;25.342;2023-06-10T13:04:23;99497.31;;;32.54;38.26
7333;BME280;3707;43.618;25.342;2023-06-10T13:06:49;99496.06;;;31.94;38.53
7333;BME280;3707;43.618;25.342;2023-06-10T13:09:16;99477.50;;;32.14;38.22
7333;BME280;3707;43.618;25.342;2023-06-10T13:11:43;99490.47;;;32.61;36.49
7333;BME280;3707;43.618;25.342;2023-06-10T13:14:10;99490.16;;;32.43;36.13